sensor_id;sensor_type;location;lat;lon;timestamp;pressure;altitude;pressure_sealevel;temperature;humidity
74103;BME280;62853;46.166;3.640;2023-04-03T00:01:09;102795.38;;;2.00;100.00
74103;BME280;62853;46.166;3.640;2023-04-03T00:03:34;102808.41;;;2.02;100.00
74103;BME280;62853;46.166;3.640;2023-04-03T00:06:00;102804.06;;;2.01;100.00
74103;BME280;62853;46.166;3.640;2023-04-03T00:08:26;102799.72;;;2.00;100.00
74103;BME280;62853;46.166;3.640;2023-04-03T00:10:51;102804.03;;;1.98;100.00
74103;BME280;62853;46.166;3.640;2023-04-03T00:13:17;102804.84;;;1.95;100.00
74103;BME280;62853;46.166;3.640;2023-04-03T00:15:43;102809.19;;;1.95;100.00
74103;BME280;62853;46.166;3.640;2023-04-03T00:18:08;102811.78;;;1.95;100.00
74103;BME280;62853;46.166;3.640;2023-04-03T00:20:34;102797.00;;;1.89;100.00
74103;BME280;62853;46.166;3.640;2023-04-03T00:23:00;102812.56;;;1.88;100.00
74103;BME280;62853;46.166;3.640;2023-04-03T00:25:25;102819.44;;;1.84;100.00
74103;BME280;62853;46.166;3.640;2023-04-03T00:27:51;102814.22;;;1.82;100.00
74103;BME280;62853;46.166;3.640;2023-04-03T00:30:19;102823.75;;;1.83;100.00
74103;BME280;62853;46.166;3.640;2023-04-03T00:32:47;102818.50;;;1.80;100.00
74103;BME280;62853;46.166;3.640;2023-04-03T00:35:12;102810.63;;;1.73;100.00
74103;BME280;62853;46.166;3.640;2023-04-03T00:37:40;102811.50;;;1.75;100.00
74103;BME280;62853;46.166;3.640;2023-04-03T00:40:06;102811.47;;;1.72;100.00
74103;BME280;62853;46.166;3.640;2023-04-03T00:42:32;102812.31;;;1.69;100.00
74103;BME280;62853;46.166;3.640;2023-04-03T00:47:23;102823.50;;;1.65;100.00
74103;BME280;62853;46.166;3.640;2023-04-03T00:49:50;102820.88;;;1.63;100.00
74103;BME280;62853;46.166;3.640;2023-04-03T00:52:19;102819.97;;;1.61;100.00
74103;BME280;62853;46.166;3.640;2023-04-03T00:54:47;102824.28;;;1.59;100.00
74103;BME280;62853;46.166;3.640;2023-04-03T00:57:15;102818.19;;;1.56;100.00
74103;BME280;62853;46.166;3.640;2023-04-03T00:59:46;102826.88;;;1.59;100.00
74103;BME280;62853;46.166;3.640;2023-04-03T01:02:14;102825.16;;;1.60;100.00
74103;BME280;62853;46.166;3.640;2023-04-03T01:04:42;102830.34;;;1.60;100.00
74103;BME280;62853;46.166;3.640;2023-04-03T01:09:43;102829.34;;;1.48;100.00
74103;BME280;62853;46.166;3.640;2023-04-03T01:12:32;102838.03;;;1.52;100.00
74103;BME280;62853;46.166;3.640;2023-04-03T01:15:05;102839.69;;;1.47;100.00
74103;BME280;62853;46.166;3.640;2023-04-03T01:17:42;102837.09;;;1.47;100.00
74103;BME280;62853;46.166;3.640;2023-04-03T01:22:59;102843.09;;;1.44;100.00
74103;BME280;62853;46.166;3.640;2023-04-03T01:25:23;102831.81;;;1.41;100.00
74103;BME280;62853;46.166;3.640;2023-04-03T01:27:49;102839.56;;;1.39;100.00
74103;BME280;62853;46.166;3.640;2023-04-03T01:30:16;102844.75;;;1.39;100.00
74103;BME280;62853;46.166;3.640;2023-04-03T01:32:43;102843.88;;;1.37;100.00
74103;BME280;62853;46.166;3.640;2023-04-03T01:35:09;102834.25;;;1.33;100.00
74103;BME280;62853;46.166;3.640;2023-04-03T01:37:35;102838.63;;;1.34;100.00
74103;BME280;62853;46.166;3.640;2023-04-03T01:40:00;102839.47;;;1.32;100.00
74103;BME280;62853;46.166;3.640;2023-04-03T01:42:25;102839.44;;;1.30;100.00
74103;BME280;62853;46.166;3.640;2023-04-03T01:44:51;102838.53;;;1.29;100.00
74103;BME280;62853;46.166;3.640;2023-04-03T01:47:16;102843.69;;;1.26;100.00
74103;BME280;62853;46.166;3.640;2023-04-03T01:49:42;102836.69;;;1.22;100.00
74103;BME280;62853;46.166;3.640;2023-04-03T01:52:07;102840.97;;;1.19;100.00
74103;BME280;62853;46.166;3.640;2023-04-03T01:54:32;102839.28;;;1.22;100.00
74103;BME280;62853;46.166;3.640;2023-04-03T01:56:58;102839.28;;;1.21;100.00
74103;BME280;62853;46.166;3.640;2023-04-03T01:59:23;102834.91;;;1.18;100.00
74103;BME280;62853;46.166;3.640;2023-04-03T02:01:49;102837.44;;;1.14;100.00
74103;BME280;62853;46.166;3.640;2023-04-03T02:04:14;102841.75;;;1.13;100.00
74103;BME280;62853;46.166;3.640;2023-04-03T02:06:40;102836.53;;;1.11;100.00
74103;BME280;62853;46.166;3.640;2023-04-03T02:09:05;102844.28;;;1.10;100.00
74103;BME280;62853;46.166;3.640;2023-04-03T02:11:32;102839.94;;;1.09;100.00
74103;BME280;62853;46.166;3.640;2023-04-03T02:13:57;102839.94;;;1.09;100.00
74103;BME280;62853;46.166;3.640;2023-04-03T02:16:22;102846.00;;;1.09;100.00
74103;BME280;62853;46.166;3.640;2023-04-03T02:18:48;102847.66;;;1.06;100.00
74103;BME280;62853;46.166;3.640;2023-04-03T02:21:13;102851.09;;;1.03;100.00
74103;BME280;62853;46.166;3.640;2023-04-03T02:23:39;102852.81;;;1.01;100.00
74103;BME280;62853;46.166;3.640;2023-04-03T02:26:08;102848.47;;;1.02;100.00
74103;BME280;62853;46.166;3.640;2023-04-03T02:28:34;102854.56;;;1.04;100.00
74103;BME280;62853;46.166;3.640;2023-04-03T02:31:00;102844.16;;;1.02;100.00
74103;BME280;62853;46.166;3.640;2023-04-03T02:33:25;102855.28;;;0.95;100.00
74103;BME280;62853;46.166;3.640;2023-04-03T02:35:55;102849.22;;;0.95;100.00
74103;BME280;62853;46.166;3.640;2023-04-03T02:38:21;102854.44;;;0.98;100.00
74103;BME280;62853;46.166;3.640;2023-04-03T02:40:47;102855.28;;;0.95;100.00
74103;BME280;62853;46.166;3.640;2023-04-03T02:43:12;102857.94;;;0.98;100.00
74103;BME280;62853;46.166;3.640;2023-04-03T02:45:37;102854.47;;;0.99;100.00
74103;BME280;62853;46.166;3.640;2023-04-03T02:48:03;102852.81;;;1.03;100.00
74103;BME280;62853;46.166;3.640;2023-04-03T02:50:29;102858.84;;;1.02;100.00
74103;BME280;62853;46.166;3.640;2023-04-03T02:52:54;102849.41;;;1.05;100.00
74103;BME280;62853;46.166;3.640;2023-04-03T02:55:20;102870.22;;;1.08;100.00
74103;BME280;62853;46.166;3.640;2023-04-03T02:57:45;102867.72;;;1.13;100.00
74103;BME280;62853;46.166;3.640;2023-04-03T03:00:11;102868.63;;;1.17;100.00
74103;BME280;62853;46.166;3.640;2023-04-03T03:02:37;102868.66;;;1.20;100.00
74103;BME280;62853;46.166;3.640;2023-04-03T03:05:02;102871.38;;;1.26;100.00
74103;BME280;62853;46.166;3.640;2023-04-03T03:07:28;102865.41;;;1.30;100.00
74103;BME280;62853;46.166;3.640;2023-04-03T03:09:53;102865.50;;;1.38;100.00
74103;BME280;62853;46.166;3.640;2023-04-03T03:12:19;102865.53;;;1.39;100.00
74103;BME280;62853;46.166;3.640;2023-04-03T03:14:47;102866.44;;;1.43;100.00
74103;BME280;62853;46.166;3.640;2023-04-03T03:17:12;102862.81;;;1.33;100.00
74103;BME280;62853;46.166;3.640;2023-04-03T03:19:38;102863.75;;;1.35;100.00
74103;BME280;62853;46.166;3.640;2023-04-03T03:22:03;102862.84;;;1.35;100.00
74103;BME280;62853;46.166;3.640;2023-04-03T03:24:29;102855.94;;;1.34;100.00
74103;BME280;62853;46.166;3.640;2023-04-03T03:26:54;102855.16;;;1.39;100.00
74103;BME280;62853;46.166;3.640;2023-04-03T03:29:20;102853.41;;;1.40;100.00
74103;BME280;62853;46.166;3.640;2023-04-03T03:31:45;102863.75;;;1.35;100.00
74103;BME280;62853;46.166;3.640;2023-04-03T03:34:11;102869.78;;;1.34;100.00
74103;BME280;62853;46.166;3.640;2023-04-03T03:36:37;102868.06;;;1.36;100.00
74103;BME280;62853;46.166;3.640;2023-04-03T03:39:02;102873.22;;;1.35;100.00
74103;BME280;62853;46.166;3.640;2023-04-03T03:41:28;102875.00;;;1.36;100.00
74103;BME280;62853;46.166;3.640;2023-04-03T03:43:53;102875.84;;;1.36;100.00
74103;BME280;62853;46.166;3.640;2023-04-03T03:46:18;102868.91;;;1.34;100.00
74103;BME280;62853;46.166;3.640;2023-04-03T03:48:44;102879.28;;;1.32;100.00
74103;BME280;62853;46.166;3.640;2023-04-03T03:51:10;102879.28;;;1.32;100.00
74103;BME280;62853;46.166;3.640;2023-04-03T03:53:35;102890.50;;;1.31;100.00
74103;BME280;62853;46.166;3.640;2023-04-03T03:56:00;102877.50;;;1.31;100.00
74103;BME280;62853;46.166;3.640;2023-04-03T03:58:26;102884.44;;;1.30;100.00
74103;BME280;62853;46.166;3.640;2023-04-03T04:00:51;102885.22;;;1.25;100.00
74103;BME280;62853;46.166;3.640;2023-04-03T04:03:16;102886.94;;;1.26;100.00
74103;BME280;62853;46.166;3.640;2023-04-03T04:05:43;102886.88;;;1.23;100.00
74103;BME280;62853;46.166;3.640;2023-04-03T04:08:08;102892.91;;;1.20;100.00
74103;BME280;62853;46.166;3.640;2023-04-03T04:10:34;102892.00;;;1.20;100.00
74103;BME280;62853;46.166;3.640;2023-04-03T04:13:00;102887.63;;;1.16;100.00
74103;BME280;62853;46.166;3.640;2023-04-03T04:15:26;102887.53;;;1.11;100.00
74103;BME280;62853;46.166;3.640;2023-04-03T04:17:52;102896.25;;;1.15;100.00
74103;BME280;62853;46.166;3.640;2023-04-03T04:20:18;102890.13;;;1.11;100.00
74103;BME280;62853;46.166;3.640;2023-04-03T04:22:43;102886.66;;;1.09;100.00
74103;BME280;62853;46.166;3.640;2023-04-03T04:25:09;102888.38;;;1.08;100.00
74103;BME280;62853;46.166;3.640;2023-04-03T04:27:35;102895.25;;;1.05;100.00
74103;BME280;62853;46.166;3.640;2023-04-03T04:30:00;102888.28;;;1.04;100.00
74103;BME280;62853;46.166;3.640;2023-04-03T04:32:26;102888.22;;;1.01;100.00
74103;BME280;62853;46.166;3.640;2023-04-03T04:34:51;102889.13;;;1.01;100.00
74103;BME280;62853;46.166;3.640;2023-04-03T04:37:17;102892.63;;;1.03;100.00
74103;BME280;62853;46.166;3.640;2023-04-03T04:39:42;102895.22;;;1.03;100.00
74103;BME280;62853;46.166;3.640;2023-04-03T04:42:07;102884.97;;;1.13;100.00
74103;BME280;62853;46.166;3.640;2023-04-03T04:44:40;102897.81;;;1.03;100.00
74103;BME280;62853;46.166;3.640;2023-04-03T04:47:06;102891.72;;;1.03;100.00
74103;BME280;62853;46.166;3.640;2023-04-03T04:49:31;102899.53;;;1.04;100.00
74103;BME280;62853;46.166;3.640;2023-04-03T04:51:57;102898.72;;;1.07;100.00
74103;BME280;62853;46.166;3.640;2023-04-03T04:54:22;102903.00;;;1.03;100.00
74103;BME280;62853;46.166;3.640;2023-04-03T04:56:47;102903.00;;;1.03;100.00
74103;BME280;62853;46.166;3.640;2023-04-03T04:59:13;102909.09;;;1.05;100.00
74103;BME280;62853;46.166;3.640;2023-04-03T05:01:41;102911.69;;;1.05;100.00
74103;BME280;62853;46.166;3.640;2023-04-03T05:04:06;102909.09;;;1.05;100.00
74103;BME280;62853;46.166;3.640;2023-04-03T05:06:32;102906.50;;;1.05;100.00
74103;BME280;62853;46.166;3.640;2023-04-03T05:08:58;102909.88;;;1.01;100.00
74103;BME280;62853;46.166;3.640;2023-04-03T05:11:24;102911.66;;;1.04;100.00
74103;BME280;62853;46.166;3.640;2023-04-03T05:13:49;102910.81;;;1.05;100.00
74103;BME280;62853;46.166;3.640;2023-04-03T05:16:15;102916.00;;;1.05;100.00
74103;BME280;62853;46.166;3.640;2023-04-03T05:18:40;102916.81;;;1.02;100.00
74103;BME280;62853;46.166;3.640;2023-04-03T05:21:06;102920.28;;;1.01;100.00
74103;BME280;62853;46.166;3.640;2023-04-03T05:23:31;102920.28;;;1.01;100.00
74103;BME280;62853;46.166;3.640;2023-04-03T05:25:56;102927.25;;;1.05;100.00
74103;BME280;62853;46.166;3.640;2023-04-03T05:28:22;102927.22;;;1.04;100.00
74103;BME280;62853;46.166;3.640;2023-04-03T05:30:57;102924.63;;;1.04;100.00
74103;BME280;62853;46.166;3.640;2023-04-03T05:33:23;102933.28;;;1.04;100.00
74103;BME280;62853;46.166;3.640;2023-04-03T05:35:49;102942.84;;;1.07;100.00
74103;BME280;62853;46.166;3.640;2023-04-03T05:38:14;102936.78;;;1.08;100.00
74103;BME280;62853;46.166;3.640;2023-04-03T05:40:40;102940.31;;;1.10;100.00
74103;BME280;62853;46.166;3.640;2023-04-03T05:43:05;102940.31;;;1.10;100.00
74103;BME280;62853;46.166;3.640;2023-04-03T05:45:30;102937.75;;;1.11;100.00
74103;BME280;62853;46.166;3.640;2023-04-03T05:47:56;102940.38;;;1.13;100.00
74103;BME280;62853;46.166;3.640;2023-04-03T05:50:21;102939.50;;;1.14;100.00
74103;BME280;62853;46.166;3.640;2023-04-03T05:52:48;102940.44;;;1.18;100.00
74103;BME280;62853;46.166;3.640;2023-04-03T05:55:15;102936.13;;;1.17;100.00
74103;BME280;62853;46.166;3.640;2023-04-03T05:57:40;102937.00;;;1.19;100.00
74103;BME280;62853;46.166;3.640;2023-04-03T06:00:07;102931.00;;;1.23;100.00
74103;BME280;62853;46.166;3.640;2023-04-03T06:02:35;102940.00;;;1.40;100.00
74103;BME280;62853;46.166;3.640;2023-04-03T06:05:01;102940.13;;;1.49;100.00
74103;BME280;62853;46.166;3.640;2023-04-03T06:07:27;102933.25;;;1.53;100.00
74103;BME280;62853;46.166;3.640;2023-04-03T06:09:54;102935.09;;;1.59;100.00
74103;BME280;62853;46.166;3.640;2023-04-03T06:12:21;102936.47;;;1.92;100.00
74103;BME280;62853;46.166;3.640;2023-04-03T06:14:47;102937.03;;;2.32;100.00
74103;BME280;62853;46.166;3.640;2023-04-03T06:17:14;102947.13;;;2.76;100.00
74103;BME280;62853;46.166;3.640;2023-04-03T06:19:40;102940.81;;;3.37;100.00
74103;BME280;62853;46.166;3.640;2023-04-03T06:22:06;102943.44;;;4.84;100.00
74103;BME280;62853;46.166;3.640;2023-04-03T06:24:32;102937.97;;;6.92;100.00
74103;BME280;62853;46.166;3.640;2023-04-03T06:26:57;102941.56;;;8.69;100.00
74103;BME280;62853;46.166;3.640;2023-04-03T06:29:23;102945.38;;;9.68;100.00
74103;BME280;62853;46.166;3.640;2023-04-03T06:31:50;102943.03;;;10.88;100.00
74103;BME280;62853;46.166;3.640;2023-04-03T06:34:15;102946.25;;;11.73;80.34
74103;BME280;62853;46.166;3.640;2023-04-03T06:36:42;102944.28;;;12.47;80.02
74103;BME280;62853;46.166;3.640;2023-04-03T06:39:19;102948.78;;;13.30;72.81
74103;BME280;62853;46.166;3.640;2023-04-03T06:41:54;102939.81;;;13.87;73.64
74103;BME280;62853;46.166;3.640;2023-04-03T06:44:20;102942.91;;;14.49;61.68
74103;BME280;62853;46.166;3.640;2023-04-03T06:46:45;102935.09;;;14.92;60.32
74103;BME280;62853;46.166;3.640;2023-04-03T06:49:12;102933.41;;;14.67;56.33
74103;BME280;62853;46.166;3.640;2023-04-03T06:51:38;102944.97;;;14.41;56.40
74103;BME280;62853;46.166;3.640;2023-04-03T06:54:05;102945.63;;;14.71;55.38
74103;BME280;62853;46.166;3.640;2023-04-03T06:56:31;102938.59;;;15.14;52.29
74103;BME280;62853;46.166;3.640;2023-04-03T06:58:57;102946.97;;;15.48;52.86
74103;BME280;62853;46.166;3.640;2023-04-03T07:01:28;102953.22;;;15.89;52.33
74103;BME280;62853;46.166;3.640;2023-04-03T07:03:55;102948.75;;;15.90;50.46
74103;BME280;62853;46.166;3.640;2023-04-03T07:06:21;102952.88;;;15.97;49.21
74103;BME280;62853;46.166;3.640;2023-04-03T07:08:46;102945.19;;;16.30;48.87
74103;BME280;62853;46.166;3.640;2023-04-03T07:11:13;102946.16;;;16.67;50.45
74103;BME280;62853;46.166;3.640;2023-04-03T07:13:39;102952.09;;;17.47;46.66
74103;BME280;62853;46.166;3.640;2023-04-03T07:16:05;102959.69;;;17.55;45.21
74103;BME280;62853;46.166;3.640;2023-04-03T07:18:32;102962.66;;;17.48;42.47
74103;BME280;62853;46.166;3.640;2023-04-03T07:20:58;102956.97;;;17.39;42.48
74103;BME280;62853;46.166;3.640;2023-04-03T07:23:23;102952.56;;;17.01;42.62
74103;BME280;62853;46.166;3.640;2023-04-03T07:25:50;102963.34;;;17.35;45.33
74103;BME280;62853;46.166;3.640;2023-04-03T07:28:17;102959.38;;;17.78;40.07
74103;BME280;62853;46.166;3.640;2023-04-03T07:30:44;102955.47;;;18.36;41.64
74103;BME280;62853;46.166;3.640;2023-04-03T07:33:12;102962.25;;;18.75;40.63
74103;BME280;62853;46.166;3.640;2023-04-03T07:35:38;102962.38;;;18.56;39.24
74103;BME280;62853;46.166;3.640;2023-04-03T07:38:04;102955.03;;;17.95;39.93
74103;BME280;62853;46.166;3.640;2023-04-03T07:40:30;102968.84;;;17.84;39.93
74103;BME280;62853;46.166;3.640;2023-04-03T07:42:56;102958.16;;;18.52;39.83
74103;BME280;62853;46.166;3.640;2023-04-03T07:45:22;102952.81;;;18.86;39.99
74103;BME280;62853;46.166;3.640;2023-04-03T07:47:48;102954.34;;;18.90;36.37
74103;BME280;62853;46.166;3.640;2023-04-03T07:50:14;102962.69;;;18.84;36.27
74103;BME280;62853;46.166;3.640;2023-04-03T07:52:39;102963.53;;;19.00;34.98
74103;BME280;62853;46.166;3.640;2023-04-03T07:55:06;102961.28;;;18.61;35.98
74103;BME280;62853;46.166;3.640;2023-04-03T07:57:31;102963.88;;;18.62;36.50
74103;BME280;62853;46.166;3.640;2023-04-03T07:59:56;102968.09;;;19.14;36.70
74103;BME280;62853;46.166;3.640;2023-04-03T08:02:22;102961.06;;;19.13;35.92
74103;BME280;62853;46.166;3.640;2023-04-03T08:04:47;102959.66;;;19.52;36.11
74103;BME280;62853;46.166;3.640;2023-04-03T08:07:13;102971.66;;;20.20;35.83
74103;BME280;62853;46.166;3.640;2023-04-03T08:09:38;102961.84;;;20.91;36.13
74103;BME280;62853;46.166;3.640;2023-04-03T08:12:04;102953.91;;;20.89;34.03
74103;BME280;62853;46.166;3.640;2023-04-03T08:14:33;102958.34;;;20.47;34.01
74103;BME280;62853;46.166;3.640;2023-04-03T08:17:02;102972.38;;;19.79;33.01
74103;BME280;62853;46.166;3.640;2023-04-03T08:19:29;102967.28;;;18.48;35.80
74103;BME280;62853;46.166;3.640;2023-04-03T08:21:55;102964.00;;;16.65;38.35
74103;BME280;62853;46.166;3.640;2023-04-03T08:24:21;102969.22;;;15.45;40.12
74103;BME280;62853;46.166;3.640;2023-04-03T08:26:47;102970.50;;;14.91;40.93
74103;BME280;62853;46.166;3.640;2023-04-03T08:29:12;102969.72;;;14.88;41.71
74103;BME280;62853;46.166;3.640;2023-04-03T08:31:38;102982.53;;;15.66;42.28
74103;BME280;62853;46.166;3.640;2023-04-03T08:34:04;102977.75;;;15.53;39.96
74103;BME280;62853;46.166;3.640;2023-04-03T08:36:30;102969.53;;;14.46;41.03
74103;BME280;62853;46.166;3.640;2023-04-03T08:38:56;102985.75;;;13.05;43.26
74103;BME280;62853;46.166;3.640;2023-04-03T08:41:27;102986.28;;;11.92;45.26
74103;BME280;62853;46.166;3.640;2023-04-03T08:49:42;102983.16;;;14.60;42.57
74103;BME280;62853;46.166;3.640;2023-04-03T08:57:51;102990.69;;;11.56;45.09
74103;BME280;62853;46.166;3.640;2023-04-03T09:00:23;102990.50;;;11.63;43.07
74103;BME280;62853;46.166;3.640;2023-04-03T09:02:55;102985.97;;;11.32;43.85
74103;BME280;62853;46.166;3.640;2023-04-03T09:10:51;102995.19;;;10.27;46.07
74103;BME280;62853;46.166;3.640;2023-04-03T09:13:39;102996.28;;;10.62;45.06
74103;BME280;62853;46.166;3.640;2023-04-03T09:19:22;102987.25;;;11.53;43.36
74103;BME280;62853;46.166;3.640;2023-04-03T09:21:51;102992.09;;;11.33;41.04
74103;BME280;62853;46.166;3.640;2023-04-03T09:24:18;102990.41;;;11.30;39.46
74103;BME280;62853;46.166;3.640;2023-04-03T09:26:53;102992.81;;;11.02;40.75
74103;BME280;62853;46.166;3.640;2023-04-03T09:29:22;102984.09;;;10.58;41.13
74103;BME280;62853;46.166;3.640;2023-04-03T09:31:50;103001.53;;;9.65;40.16
74103;BME280;62853;46.166;3.640;2023-04-03T09:36:54;103002.47;;;9.61;45.47
74103;BME280;62853;46.166;3.640;2023-04-03T09:39:24;102998.47;;;10.40;43.74
74103;BME280;62853;46.166;3.640;2023-04-03T09:44:25;102990.56;;;10.84;38.47
74103;BME280;62853;46.166;3.640;2023-04-03T09:46:50;102981.50;;;10.06;40.15
74103;BME280;62853;46.166;3.640;2023-04-03T09:49:17;102989.13;;;9.74;42.21
74103;BME280;62853;46.166;3.640;2023-04-03T09:51:42;102981.34;;;9.66;42.55
74103;BME280;62853;46.166;3.640;2023-04-03T09:56:51;102982.81;;;9.29;44.83
74103;BME280;62853;46.166;3.640;2023-04-03T09:59:18;102978.63;;;9.16;42.03
74103;BME280;62853;46.166;3.640;2023-04-03T10:02:02;102972.72;;;8.97;42.75
74103;BME280;62853;46.166;3.640;2023-04-03T10:04:38;102973.75;;;8.85;41.92
74103;BME280;62853;46.166;3.640;2023-04-03T10:07:28;102961.59;;;8.80;41.60
74103;BME280;62853;46.166;3.640;2023-04-03T10:10:00;102961.75;;;8.67;40.74
74103;BME280;62853;46.166;3.640;2023-04-03T10:12:26;102963.44;;;8.70;44.83
74103;BME280;62853;46.166;3.640;2023-04-03T10:19:51;102962.63;;;8.68;46.85
74103;BME280;62853;46.166;3.640;2023-04-03T10:28:00;102956.59;;;8.60;47.17
74103;BME280;62853;46.166;3.640;2023-04-03T10:30:30;102949.41;;;8.75;46.06
74103;BME280;62853;46.166;3.640;2023-04-03T10:35:48;102948.44;;;9.40;43.75
74103;BME280;62853;46.166;3.640;2023-04-03T10:41:46;102951.84;;;9.98;39.84
74103;BME280;62853;46.166;3.640;2023-04-03T10:46:49;102926.63;;;10.30;41.05
74103;BME280;62853;46.166;3.640;2023-04-03T10:55:02;102923.47;;;10.13;38.14
74103;BME280;62853;46.166;3.640;2023-04-03T10:57:32;102916.28;;;10.21;40.41
74103;BME280;62853;46.166;3.640;2023-04-03T11:00:07;102922.25;;;10.32;39.23
74103;BME280;62853;46.166;3.640;2023-04-03T11:07:57;102910.31;;;10.13;38.24
74103;BME280;62853;46.166;3.640;2023-04-03T11:10:37;102907.72;;;10.11;43.77
74103;BME280;62853;46.166;3.640;2023-04-03T11:13:13;102910.81;;;10.30;49.87
74103;BME280;62853;46.166;3.640;2023-04-03T11:15:41;102913.66;;;10.21;39.37
74103;BME280;62853;46.166;3.640;2023-04-03T11:18:15;102904.22;;;10.11;39.49
74103;BME280;62853;46.166;3.640;2023-04-03T11:20:52;102909.47;;;10.11;39.84
74103;BME280;62853;46.166;3.640;2023-04-03T11:23:24;102899.66;;;10.19;41.12
74103;BME280;62853;46.166;3.640;2023-04-03T11:25:54;102906.97;;;10.03;38.15
74103;BME280;62853;46.166;3.640;2023-04-03T11:28:20;102887.72;;;10.01;40.04
74103;BME280;62853;46.166;3.640;2023-04-03T11:33:37;102904.28;;;10.08;44.62
74103;BME280;62853;46.166;3.640;2023-04-03T11:36:12;102889.31;;;10.08;41.42
74103;BME280;62853;46.166;3.640;2023-04-03T11:38:43;102891.06;;;10.11;42.19
74103;BME280;62853;46.166;3.640;2023-04-03T11:41:10;102886.59;;;10.14;40.82
74103;BME280;62853;46.166;3.640;2023-04-03T11:46:55;102872.94;;;9.95;39.39
74103;BME280;62853;46.166;3.640;2023-04-03T11:52:55;102873.84;;;9.93;45.43
74103;BME280;62853;46.166;3.640;2023-04-03T12:03:56;102867.28;;;10.15;40.31
74103;BME280;62853;46.166;3.640;2023-04-03T12:08:59;102855.31;;;10.42;44.08
74103;BME280;62853;46.166;3.640;2023-04-03T12:11:32;102862.19;;;10.48;40.61
74103;BME280;62853;46.166;3.640;2023-04-03T12:16:26;102842.31;;;10.33;39.28
74103;BME280;62853;46.166;3.640;2023-04-03T12:35:08;102848.09;;;10.51;38.89
74103;BME280;62853;46.166;3.640;2023-04-03T12:45:44;102828.00;;;10.45;40.28
74103;BME280;62853;46.166;3.640;2023-04-03T12:48:17;102822.84;;;10.40;40.92
74103;BME280;62853;46.166;3.640;2023-04-03T12:50:45;102826.91;;;10.55;38.73
74103;BME280;62853;46.166;3.640;2023-04-03T12:53:14;102825.13;;;10.57;38.52
74103;BME280;62853;46.166;3.640;2023-04-03T12:55:42;102817.13;;;10.60;40.31
74103;BME280;62853;46.166;3.640;2023-04-03T12:58:23;102820.66;;;10.61;39.36
74103;BME280;62853;46.166;3.640;2023-04-03T13:01:09;102802.44;;;10.50;38.56
74103;BME280;62853;46.166;3.640;2023-04-03T13:03:38;102799.72;;;10.53;42.83
74103;BME280;62853;46.166;3.640;2023-04-03T13:06:04;102799.56;;;10.61;41.92
74103;BME280;62853;46.166;3.640;2023-04-03T13:08:31;102803.91;;;10.62;41.43
74103;BME280;62853;46.166;3.640;2023-04-03T13:11:06;102805.75;;;10.58;39.51
74103;BME280;62853;46.166;3.640;2023-04-03T13:13:33;102797.13;;;10.52;39.40
74103;BME280;62853;46.166;3.640;2023-04-03T13:15:59;102800.94;;;10.38;39.55
74103;BME280;62853;46.166;3.640;2023-04-03T13:20:57;102796.72;;;10.30;38.83
74103;BME280;62853;46.166;3.640;2023-04-03T13:23:24;102795.84;;;10.31;40.74
74103;BME280;62853;46.166;3.640;2023-04-03T13:25:50;102789.00;;;10.22;39.83
74103;BME280;62853;46.166;3.640;2023-04-03T13:28:22;102797.66;;;10.27;43.74
74103;BME280;62853;46.166;3.640;2023-04-03T13:31:03;102785.50;;;10.20;41.55
74103;BME280;62853;46.166;3.640;2023-04-03T13:33:31;102764.59;;;10.14;42.46
74103;BME280;62853;46.166;3.640;2023-04-03T13:36:07;102796.03;;;10.20;45.21
74103;BME280;62853;46.166;3.640;2023-04-03T13:38:33;102771.56;;;10.16;42.22
74103;BME280;62853;46.166;3.640;2023-04-03T13:41:02;102784.88;;;10.10;39.57
74103;BME280;62853;46.166;3.640;2023-04-03T13:43:33;102782.25;;;10.10;41.41
74103;BME280;62853;46.166;3.640;2023-04-03T13:48:36;102789.34;;;10.05;43.30
74103;BME280;62853;46.166;3.640;2023-04-03T13:53:59;102774.59;;;9.98;45.28
74103;BME280;62853;46.166;3.640;2023-04-03T13:56:39;102769.34;;;9.96;43.14
74103;BME280;62853;46.166;3.640;2023-04-03T14:01:49;102779.03;;;9.96;44.87
74103;BME280;62853;46.166;3.640;2023-04-03T14:04:22;102764.94;;;9.98;43.11
74103;BME280;62853;46.166;3.640;2023-04-03T14:06:48;102763.09;;;10.02;42.67
74103;BME280;62853;46.166;3.640;2023-04-03T14:09:16;102760.66;;;9.93;41.35
74103;BME280;62853;46.166;3.640;2023-04-03T14:11:42;102754.53;;;9.92;43.07
74103;BME280;62853;46.166;3.640;2023-04-03T14:14:17;102760.81;;;9.86;42.39
74103;BME280;62853;46.166;3.640;2023-04-03T14:16:46;102764.44;;;9.79;42.15
74103;BME280;62853;46.166;3.640;2023-04-03T14:19:38;102753.13;;;9.74;43.84
74103;BME280;62853;46.166;3.640;2023-04-03T14:22:14;102755.75;;;9.76;43.55
74103;BME280;62853;46.166;3.640;2023-04-03T14:24:40;102758.38;;;9.76;45.96
74103;BME280;62853;46.166;3.640;2023-04-03T14:27:15;102763.59;;;9.77;43.82
74103;BME280;62853;46.166;3.640;2023-04-03T14:29:41;102747.03;;;9.74;45.74
74103;BME280;62853;46.166;3.640;2023-04-03T14:32:07;102753.13;;;9.74;44.64
74103;BME280;62853;46.166;3.640;2023-04-03T14:34:32;102745.19;;;9.77;46.20
74103;BME280;62853;46.166;3.640;2023-04-03T14:36:57;102746.25;;;9.68;42.15
74103;BME280;62853;46.166;3.640;2023-04-03T14:39:23;102749.78;;;9.67;43.88
74103;BME280;62853;46.166;3.640;2023-04-03T14:41:48;102759.47;;;9.65;44.18
74103;BME280;62853;46.166;3.640;2023-04-03T14:44:14;102757.88;;;9.58;43.20
74103;BME280;62853;46.166;3.640;2023-04-03T14:46:42;102753.56;;;9.53;43.95
74103;BME280;62853;46.166;3.640;2023-04-03T14:49:15;102749.22;;;9.52;44.79
74103;BME280;62853;46.166;3.640;2023-04-03T14:51:43;102745.69;;;9.51;45.52
74103;BME280;62853;46.166;3.640;2023-04-03T14:54:20;102752.66;;;9.55;47.21
74103;BME280;62853;46.166;3.640;2023-04-03T14:56:51;102754.44;;;9.55;48.35